createdAt,value
2023-04-07T00:00:50.557Z,97854.22
2023-04-07T00:01:53.823Z,97856.00
2023-04-07T00:02:57.416Z,97849.53
2023-04-07T00:04:01.093Z,97851.31
2023-04-07T00:05:04.413Z,97855.34
2023-04-07T00:06:07.999Z,97844.25
2023-04-07T00:07:11.096Z,97850.31
2023-04-07T00:08:14.885Z,97849.63
2023-04-07T00:09:18.182Z,97851.37
2023-04-07T00:10:21.476Z,97845.88
2023-04-07T00:11:24.632Z,97841.00
2023-04-07T00:12:36.503Z,97852.28
2023-04-07T00:13:39.343Z,97847.91
2023-04-07T00:14:42.805Z,97836.78
2023-04-07T00:15:45.838Z,97849.97
2023-04-07T00:16:49.191Z,97845.09
2023-04-07T00:17:52.269Z,97846.34
2023-04-07T00:18:55.272Z,97849.00
2023-04-07T00:19:58.444Z,97851.87
2023-04-07T00:21:01.462Z,97848.31
2023-04-07T00:22:04.359Z,97849.16
2023-04-07T00:23:08.436Z,97847.81
2023-04-07T00:24:14.425Z,97849.63
2023-04-07T00:25:19.605Z,97843.75
2023-04-07T00:26:22.436Z,97840.19
2023-04-07T00:27:25.552Z,97842.50
2023-04-07T00:28:29.309Z,97840.66
2023-04-07T00:29:32.338Z,97845.63
2023-04-07T00:30:35.737Z,97841.25
2023-04-07T00:31:38.943Z,97833.25
2023-04-07T00:32:41.777Z,97831.34
2023-04-07T00:33:44.812Z,97832.72
2023-04-07T00:34:47.638Z,97833.97
2023-04-07T00:35:50.683Z,97827.28
2023-04-07T00:36:53.763Z,97832.47
2023-04-07T00:37:57.262Z,97830.34
2023-04-07T00:39:00.501Z,97836.09
2023-04-07T00:40:04.386Z,97837.00
2023-04-07T00:41:09.728Z,97838.47
2023-04-07T00:42:12.756Z,97837.56
2023-04-07T00:43:16.197Z,97832.81
2023-04-07T00:44:19.149Z,97830.22
2023-04-07T00:45:22.038Z,97830.97
2023-04-07T00:46:24.951Z,97828.87
2023-04-07T00:47:28.086Z,97834.19
2023-04-07T00:48:31.544Z,97828.81
2023-04-07T00:49:37.146Z,97822.75
2023-04-07T00:50:40.611Z,97825.88
2023-04-07T00:51:43.681Z,97821.75
2023-04-07T00:52:47.100Z,97824.16
2023-04-07T00:53:50.437Z,97824.91
2023-04-07T00:54:55.634Z,97824.38
2023-04-07T00:55:58.494Z,97823.13
2023-04-07T00:57:02.014Z,97824.28
2023-04-07T00:58:07.996Z,97821.69
2023-04-07T00:59:11.087Z,97828.47
2023-04-07T01:00:14.566Z,97825.69
2023-04-07T01:01:27.664Z,97829.50
2023-04-07T01:02:38.604Z,97822.19
2023-04-07T01:03:53.879Z,97817.94
2023-04-07T01:05:18.934Z,97820.81
2023-04-07T01:06:27.083Z,97823.16
2023-04-07T01:07:39.433Z,97815.34
2023-04-07T01:09:03.031Z,97815.56
2023-04-07T01:10:10.814Z,97811.25
2023-04-07T01:11:20.953Z,97806.78
2023-04-07T01:13:01.932Z,97800.97
2023-04-07T01:14:06.910Z,97803.06
2023-04-07T01:15:12.403Z,97813.87
2023-04-07T01:16:37.227Z,97809.31
2023-04-07T01:17:46.080Z,97811.81
2023-04-07T01:18:54.562Z,97803.50
2023-04-07T01:20:03.680Z,97808.00
2023-04-07T01:21:15.608Z,97805.81
2023-04-07T01:22:25.202Z,97809.84
2023-04-07T01:23:56.967Z,97807.56
2023-04-07T01:25:21.799Z,97804.81
2023-04-07T01:26:33.854Z,97800.41
2023-04-07T01:28:10.813Z,97804.25
2023-04-07T01:29:37.518Z,97807.22
2023-04-07T01:30:44.517Z,97809.00
2023-04-07T01:31:50.628Z,97806.59
2023-04-07T01:32:56.726Z,97804.78
2023-04-07T01:34:03.002Z,97799.66
2023-04-07T01:35:10.363Z,97802.91
2023-04-07T01:36:13.907Z,97800.25
2023-04-07T01:37:17.885Z,97793.34
2023-04-07T01:38:21.980Z,97799.03
2023-04-07T01:39:27.322Z,97798.28
2023-04-07T01:40:33.439Z,97796.25
2023-04-07T01:41:37.929Z,97798.03
2023-04-07T01:42:43.090Z,97800.63
2023-04-07T01:43:48.081Z,97800.94
2023-04-07T01:44:52.207Z,97789.16
2023-04-07T01:45:56.467Z,97795.66
2023-04-07T01:47:01.227Z,97800.63
2023-04-07T01:48:07.296Z,97780.59
2023-04-07T01:49:13.248Z,97787.34
2023-04-07T01:50:17.301Z,97800.34
2023-04-07T01:51:22.591Z,97791.34
2023-04-07T01:52:29.534Z,97789.00
2023-04-07T01:53:34.236Z,97790.50
2023-04-07T01:54:37.766Z,97794.88
2023-04-07T01:55:40.607Z,97794.69
2023-04-07T01:56:44.990Z,97800.25
2023-04-07T01:57:47.712Z,97799.81
2023-04-07T01:58:50.841Z,97796.53
2023-04-07T01:59:54.133Z,97797.91
2023-04-07T02:00:57.574Z,97803.06
2023-04-07T02:02:00.769Z,97799.91
2023-04-07T02:03:12.147Z,97801.56
2023-04-07T02:04:48.649Z,97802.62
2023-04-07T02:05:56.697Z,97795.59
2023-04-07T02:07:09.924Z,97797.81
2023-04-07T02:08:14.739Z,97794.69
2023-04-07T02:09:20.719Z,97790.28
2023-04-07T02:10:27.282Z,97800.56
2023-04-07T02:11:33.580Z,97802.25
2023-04-07T02:12:39.645Z,97788.59
2023-04-07T02:13:44.072Z,97792.03
2023-04-07T02:14:47.721Z,97796.03
2023-04-07T02:15:51.069Z,97788.81
2023-04-07T02:16:55.028Z,97791.09
2023-04-07T02:18:01.122Z,97793.16
2023-04-07T02:19:05.737Z,97795.25
2023-04-07T02:20:11.905Z,97788.56
2023-04-07T02:21:19.658Z,97791.72
2023-04-07T02:22:22.410Z,97788.47
2023-04-07T02:23:25.612Z,97795.94
2023-04-07T02:24:28.344Z,97797.06
2023-04-07T02:25:33.036Z,97797.69
2023-04-07T02:26:36.704Z,97794.62
2023-04-07T02:27:39.742Z,97791.06
2023-04-07T02:28:48.075Z,97794.41
2023-04-07T02:29:51.100Z,97789.59
2023-04-07T02:30:53.963Z,97788.75
2023-04-07T02:31:56.917Z,97791.69
2023-04-07T02:32:59.790Z,97795.31
2023-04-07T02:34:02.906Z,97797.06
2023-04-07T02:35:06.665Z,97793.00
2023-04-07T02:36:09.774Z,97800.16
2023-04-07T02:37:12.649Z,97798.47
2023-04-07T02:38:15.810Z,97796.94
2023-04-07T02:39:18.711Z,97800.28
2023-04-07T02:40:22.501Z,97795.97
2023-04-07T02:41:26.477Z,97792.44
2023-04-07T02:42:29.342Z,97791.41
2023-04-07T02:43:32.160Z,97790.44
2023-04-07T02:44:35.006Z,97791.25
2023-04-07T02:45:38.040Z,97787.22
2023-04-07T02:46:42.086Z,97791.63
2023-04-07T02:47:44.920Z,97789.88
2023-04-07T02:48:47.876Z,97793.28
2023-04-07T02:49:51.096Z,97795.59
2023-04-07T02:50:54.095Z,97790.25
2023-04-07T02:51:56.939Z,97790.66
2023-04-07T02:52:59.872Z,97793.34
2023-04-07T02:54:02.992Z,97789.88
2023-04-07T02:55:06.528Z,97794.66
2023-04-07T02:56:09.551Z,97799.22
2023-04-07T02:57:14.113Z,97791.63
2023-04-07T02:58:17.194Z,97786.75
2023-04-07T02:59:20.235Z,97783.97
2023-04-07T03:00:23.379Z,97787.56
2023-04-07T03:01:26.265Z,97789.88
2023-04-07T03:02:29.402Z,97789.53
2023-04-07T03:03:32.425Z,97789.59
2023-04-07T03:04:35.528Z,97793.56
2023-04-07T03:05:38.380Z,97795.53
2023-04-07T03:06:41.444Z,97792.06
2023-04-07T03:07:44.321Z,97797.47
2023-04-07T03:08:47.483Z,97789.53
2023-04-07T03:09:50.394Z,97786.75
2023-04-07T03:10:53.484Z,97790.84
2023-04-07T03:11:56.850Z,97789.16
2023-04-07T03:12:59.955Z,97783.50
2023-04-07T03:14:02.673Z,97787.50
2023-04-07T03:15:06.237Z,97787.94
2023-04-07T03:16:09.189Z,97787.09
2023-04-07T03:17:12.668Z,97787.78
2023-04-07T03:18:15.961Z,97788.84
2023-04-07T03:19:18.972Z,97787.84
2023-04-07T03:20:21.905Z,97786.94
2023-04-07T03:21:24.846Z,97787.28
2023-04-07T03:22:27.854Z,97788.22
2023-04-07T03:23:31.027Z,97793.22
2023-04-07T03:24:33.964Z,97791.34
2023-04-07T03:25:36.874Z,97794.41
2023-04-07T03:26:40.225Z,97793.38
2023-04-07T03:27:43.270Z,97790.66
2023-04-07T03:28:48.614Z,97788.75
2023-04-07T03:29:51.532Z,97790.56
2023-04-07T03:30:54.464Z,97793.66
2023-04-07T03:31:57.926Z,97790.59
2023-04-07T03:33:00.748Z,97797.91
2023-04-07T03:34:04.800Z,97795.19
2023-04-07T03:35:08.040Z,97790.03
2023-04-07T03:36:11.295Z,97792.19
2023-04-07T03:37:14.255Z,97794.50
2023-04-07T03:38:17.656Z,97794.16
2023-04-07T03:39:20.541Z,97789.03
2023-04-07T03:40:23.693Z,97785.44
2023-04-07T03:41:26.609Z,97788.00
2023-04-07T03:42:30.155Z,97790.00
2023-04-07T03:43:33.179Z,97782.00
2023-04-07T03:44:36.098Z,97783.03
2023-04-07T03:45:39.190Z,97781.84
2023-04-07T03:46:42.043Z,97785.41
2023-04-07T03:47:45.156Z,97786.94
2023-04-07T03:48:49.676Z,97784.28
2023-04-07T03:49:53.328Z,97788.19
2023-04-07T03:50:56.189Z,97783.78
2023-04-07T03:51:59.098Z,97789.81
2023-04-07T03:53:02.254Z,97787.22
2023-04-07T03:54:05.096Z,97786.75
2023-04-07T03:55:08.564Z,97787.62
2023-04-07T03:56:11.769Z,97781.19
2023-04-07T03:57:14.860Z,97784.22
2023-04-07T03:58:19.138Z,97789.97
2023-04-07T03:59:21.896Z,97788.00
2023-04-07T04:00:24.921Z,97793.78
2023-04-07T04:01:27.725Z,97789.03
2023-04-07T04:02:30.699Z,97791.34
2023-04-07T04:03:33.672Z,97795.97
2023-04-07T04:04:36.685Z,97799.03
2023-04-07T04:05:40.736Z,97790.72
2023-04-07T04:06:43.625Z,97798.66
2023-04-07T04:07:46.617Z,97790.66
2023-04-07T04:08:50.652Z,97800.25
2023-04-07T04:09:53.661Z,97795.16
2023-04-07T04:10:57.519Z,97795.50
2023-04-07T04:12:00.468Z,97797.03
2023-04-07T04:13:06.929Z,97793.41
2023-04-07T04:14:09.927Z,97800.34
2023-04-07T04:15:12.734Z,97799.56
2023-04-07T04:16:15.806Z,97802.47
2023-04-07T04:17:18.731Z,97805.84
2023-04-07T04:18:22.788Z,97801.91
2023-04-07T04:19:26.466Z,97799.41
2023-04-07T04:20:29.407Z,97805.63
2023-04-07T04:21:32.306Z,97815.97
2023-04-07T04:22:35.705Z,97811.78
2023-04-07T04:23:38.779Z,97810.03
2023-04-07T04:24:42.239Z,97811.13
2023-04-07T04:25:45.022Z,97808.91
2023-04-07T04:26:48.180Z,97803.06
2023-04-07T04:27:51.113Z,97804.09
2023-04-07T04:28:54.163Z,97803.22
2023-04-07T04:29:57.282Z,97806.16
2023-04-07T04:31:00.340Z,97809.75
2023-04-07T04:32:03.235Z,97812.53
2023-04-07T04:33:06.165Z,97812.28
2023-04-07T04:34:09.090Z,97811.94
2023-04-07T04:35:12.014Z,97811.91
2023-04-07T04:36:14.972Z,97812.56
2023-04-07T04:37:18.154Z,97815.84
2023-04-07T04:38:22.169Z,97810.69
2023-04-07T04:39:25.074Z,97814.88
2023-04-07T04:40:28.331Z,97811.81
2023-04-07T04:41:31.261Z,97810.06
2023-04-07T04:42:34.673Z,97817.16
2023-04-07T04:43:37.504Z,97812.00
2023-04-07T04:44:40.404Z,97812.56
2023-04-07T04:45:43.296Z,97816.88
2023-04-07T04:46:46.103Z,97810.59
2023-04-07T04:47:49.254Z,97819.06
2023-04-07T04:48:53.072Z,97818.41
2023-04-07T04:49:56.412Z,97822.25
2023-04-07T04:50:59.511Z,97824.44
2023-04-07T04:52:02.549Z,97827.56
2023-04-07T04:53:05.453Z,97822.28
2023-04-07T04:54:08.861Z,97821.75
2023-04-07T04:55:14.013Z,97827.41
2023-04-07T04:56:17.440Z,97829.16
2023-04-07T04:57:20.473Z,97817.88
2023-04-07T04:58:23.542Z,97822.72
2023-04-07T04:59:27.328Z,97823.22
2023-04-07T05:00:30.370Z,97820.03
2023-04-07T05:01:33.566Z,97819.78
2023-04-07T05:02:37.452Z,97821.69
2023-04-07T05:03:41.023Z,97820.03
2023-04-07T05:04:44.114Z,97827.69
2023-04-07T05:05:48.966Z,97827.69
2023-04-07T05:06:51.908Z,97833.44
2023-04-07T05:07:54.792Z,97831.63
2023-04-07T05:08:57.638Z,97834.53
2023-04-07T05:10:01.673Z,97830.03
2023-04-07T05:11:04.788Z,97836.72
2023-04-07T05:12:08.299Z,97830.22
2023-04-07T05:13:11.492Z,97829.19
2023-04-07T05:14:14.366Z,97829.19
2023-04-07T05:15:17.334Z,97815.72
2023-04-07T05:16:20.568Z,97827.34
2023-04-07T05:17:23.486Z,97824.50
2023-04-07T05:18:26.401Z,97823.75
2023-04-07T05:19:30.015Z,97830.03
2023-04-07T05:20:33.436Z,97831.44
2023-04-07T05:21:36.663Z,97833.81
2023-04-07T05:22:39.704Z,97847.31
2023-04-07T05:23:42.565Z,97847.03
2023-04-07T05:24:45.520Z,97846.34
2023-04-07T05:25:48.654Z,97850.19
2023-04-07T05:26:51.504Z,97849.22
2023-04-07T05:27:54.428Z,97847.47
2023-04-07T05:28:57.384Z,97852.63
2023-04-07T05:30:00.682Z,97850.06
2023-04-07T05:31:05.087Z,97849.78
2023-04-07T05:32:09.553Z,97851.63
2023-04-07T05:33:12.884Z,97850.09
2023-04-07T05:34:15.818Z,97853.56
2023-04-07T05:35:18.898Z,97843.41
2023-04-07T05:36:22.037Z,97846.81
2023-04-07T05:37:25.137Z,97852.37
2023-04-07T05:38:28.325Z,97858.41
2023-04-07T05:39:31.612Z,97852.25
2023-04-07T05:40:36.277Z,97850.94
2023-04-07T05:41:40.742Z,97854.00
2023-04-07T05:42:43.753Z,97858.69
2023-04-07T05:43:46.773Z,97862.53
2023-04-07T05:44:49.573Z,97855.78
2023-04-07T05:45:52.697Z,97854.56
2023-04-07T05:46:55.577Z,97847.56
2023-04-07T05:47:58.489Z,97854.06
2023-04-07T05:49:18.404Z,97855.16
2023-04-07T05:50:22.353Z,97859.59
2023-04-07T05:51:25.137Z,97860.66
2023-04-07T05:52:28.150Z,97860.09
2023-04-07T05:53:31.181Z,97861.63
2023-04-07T05:54:34.044Z,97863.41
2023-04-07T05:55:37.120Z,97854.84
2023-04-07T05:56:40.023Z,97851.00
2023-04-07T05:57:43.012Z,97855.72
2023-04-07T05:58:48.181Z,97851.66
2023-04-07T05:59:50.900Z,97858.16
2023-04-07T06:00:54.242Z,97852.37
2023-04-07T06:01:57.496Z,97852.72
2023-04-07T06:03:02.058Z,97852.72
2023-04-07T06:04:05.186Z,97856.81
2023-04-07T06:05:08.213Z,97858.84
2023-04-07T06:06:11.218Z,97864.00
2023-04-07T06:07:14.106Z,97859.87
2023-04-07T06:08:17.092Z,97857.25
2023-04-07T06:09:19.999Z,97858.56
2023-04-07T06:10:23.402Z,97855.28
2023-04-07T06:11:27.519Z,97862.25
2023-04-07T06:12:30.533Z,97853.97
2023-04-07T06:13:33.335Z,97855.78
2023-04-07T06:14:37.169Z,97846.22
2023-04-07T06:15:40.046Z,97853.28
2023-04-07T06:16:43.354Z,97856.06
2023-04-07T06:17:46.363Z,97859.19
2023-04-07T06:18:50.677Z,97856.88
2023-04-07T06:19:56.810Z,97857.47
2023-04-07T06:20:59.916Z,97851.31
2023-04-07T06:22:02.879Z,97854.88
2023-04-07T06:23:05.643Z,97844.50
2023-04-07T06:24:08.707Z,97852.81
2023-04-07T06:25:11.597Z,97851.00
2023-04-07T06:26:14.764Z,97853.34
2023-04-07T06:27:18.676Z,97854.13
2023-04-07T06:28:21.932Z,97844.63
2023-04-07T06:29:25.038Z,97846.50
2023-04-07T06:30:28.074Z,97849.59
2023-04-07T06:31:30.988Z,97853.69
2023-04-07T06:32:33.902Z,97855.78
2023-04-07T06:33:36.975Z,97857.84
2023-04-07T06:34:39.849Z,97851.97
2023-04-07T06:35:42.851Z,97853.25
2023-04-07T06:36:46.678Z,97853.78
2023-04-07T06:37:49.744Z,97854.31
2023-04-07T06:38:53.842Z,97855.06
2023-04-07T06:39:56.950Z,97859.44
2023-04-07T06:40:59.977Z,97854.31
2023-04-07T06:42:02.755Z,97862.38
2023-04-07T06:43:06.443Z,97858.75
2023-04-07T06:44:12.296Z,97867.56
2023-04-07T06:45:15.272Z,97867.59
2023-04-07T06:46:19.031Z,97862.16
2023-04-07T06:47:22.245Z,97859.28
2023-04-07T06:48:25.167Z,97859.31
2023-04-07T06:49:28.141Z,97861.94
2023-04-07T06:50:31.115Z,97869.13
2023-04-07T06:51:33.941Z,97866.50
2023-04-07T06:52:36.904Z,97871.66
2023-04-07T06:53:39.657Z,97871.12
2023-04-07T06:54:45.372Z,97872.72
2023-04-07T06:55:48.158Z,97876.38
2023-04-07T06:56:53.464Z,97875.88
2023-04-07T06:57:57.483Z,97868.88
2023-04-07T06:59:00.786Z,97873.50
2023-04-07T07:00:04.235Z,97888.84
2023-04-07T07:01:07.356Z,97879.53
2023-04-07T07:02:10.530Z,97878.47
2023-04-07T07:03:13.912Z,97879.28
2023-04-07T07:04:17.070Z,97882.91
2023-04-07T07:05:20.427Z,97888.06
2023-04-07T07:06:23.339Z,97888.06
2023-04-07T07:07:26.228Z,97880.88
2023-04-07T07:08:33.791Z,97891.72
2023-04-07T07:09:36.671Z,97895.59
2023-04-07T07:10:39.640Z,97886.00
2023-04-07T07:11:42.434Z,97887.56
2023-04-07T07:12:45.599Z,97893.53
2023-04-07T07:13:48.891Z,97896.16
2023-04-07T07:14:51.891Z,97895.91
2023-04-07T07:15:54.878Z,97887.53
2023-04-07T07:16:57.787Z,97900.25
2023-04-07T07:18:01.030Z,97905.16
2023-04-07T07:19:03.949Z,97889.66
2023-04-07T07:20:07.342Z,97905.44
2023-04-07T07:21:10.578Z,97912.66
2023-04-07T07:22:13.664Z,97909.31
2023-04-07T07:23:16.458Z,97908.81
2023-04-07T07:24:19.457Z,97911.91
2023-04-07T07:25:22.470Z,97911.09
2023-04-07T07:26:26.478Z,97913.19
2023-04-07T07:27:29.756Z,97913.16
2023-04-07T07:28:34.318Z,97913.63
2023-04-07T07:29:37.367Z,97919.09
2023-04-07T07:30:41.746Z,97917.09
2023-04-07T07:31:44.681Z,97918.88
2023-04-07T07:32:47.643Z,97922.25
2023-04-07T07:33:52.133Z,97923.78
2023-04-07T07:34:55.291Z,97922.50
2023-04-07T07:35:58.106Z,97932.06
2023-04-07T07:37:01.001Z,97922.50
2023-04-07T07:38:04.272Z,97920.69
2023-04-07T07:39:07.385Z,97918.03
2023-04-07T07:40:11.128Z,97921.69
2023-04-07T07:41:14.212Z,97929.75
2023-04-07T07:42:17.351Z,97923.78
2023-04-07T07:43:20.137Z,97929.81
2023-04-07T07:44:23.924Z,97931.56
2023-04-07T07:45:27.119Z,97928.28
2023-04-07T07:46:29.919Z,97925.66
2023-04-07T07:47:33.048Z,97927.72
2023-04-07T07:48:39.815Z,97928.22
2023-04-07T07:49:43.156Z,97938.53
2023-04-07T07:50:47.342Z,97932.84
2023-04-07T07:51:50.194Z,97934.00
2023-04-07T07:52:53.489Z,97934.00
2023-04-07T07:53:56.640Z,97936.63
2023-04-07T07:54:59.437Z,97933.28
2023-04-07T07:56:02.266Z,97938.69
2023-04-07T07:57:06.369Z,97937.06
2023-04-07T07:58:09.312Z,97945.13
2023-04-07T07:59:12.357Z,97943.53
2023-04-07T08:00:15.834Z,97952.06
2023-04-07T08:01:18.601Z,97945.13
2023-04-07T08:02:21.876Z,97941.28
2023-04-07T08:03:25.111Z,97948.81
2023-04-07T08:04:28.188Z,97958.97
2023-04-07T08:05:31.353Z,97954.81
2023-04-07T08:06:34.244Z,97955.12
2023-04-07T08:07:37.946Z,97960.81
2023-04-07T08:08:40.987Z,97952.78
2023-04-07T08:09:43.910Z,97958.97
2023-04-07T08:10:46.846Z,97957.13
2023-04-07T08:11:50.312Z,97958.72
2023-04-07T08:12:53.235Z,97958.50
2023-04-07T08:13:56.129Z,97959.75
2023-04-07T08:14:59.009Z,97962.62
2023-04-07T08:16:02.330Z,97962.12
2023-04-07T08:17:05.654Z,97961.59
2023-04-07T08:18:09.493Z,97958.25
2023-04-07T08:19:13.787Z,97955.91
2023-04-07T08:20:16.958Z,97957.47
2023-04-07T08:21:21.243Z,97960.84
2023-04-07T08:22:24.093Z,97968.88
2023-04-07T08:23:27.290Z,97963.69
2023-04-07T08:24:30.251Z,97960.06
2023-04-07T08:25:33.094Z,97964.72
2023-04-07T08:26:36.323Z,97952.75
2023-04-07T08:27:39.585Z,97969.59
2023-04-07T08:28:43.114Z,97963.63
2023-04-07T08:29:46.195Z,97962.62
2023-04-07T08:30:49.472Z,97967.56
2023-04-07T08:31:52.285Z,97968.34
2023-04-07T08:32:55.174Z,97962.12
2023-04-07T08:33:59.112Z,97963.44
2023-04-07T08:35:02.172Z,97963.19
2023-04-07T08:36:05.836Z,97966.53
2023-04-07T08:37:09.776Z,97970.19
2023-04-07T08:38:13.002Z,97964.41
2023-04-07T08:39:16.663Z,97974.22
2023-04-07T08:40:19.442Z,97973.44
2023-04-07T08:41:31.221Z,97973.97
2023-04-07T08:42:35.455Z,97969.09
2023-04-07T08:43:39.403Z,97972.97
2023-04-07T08:44:42.778Z,97968.88
2023-04-07T08:45:47.535Z,97969.62
2023-04-07T08:46:53.967Z,97973.00
2023-04-07T08:47:59.680Z,97976.13
2023-04-07T08:49:04.965Z,97971.16
2023-04-07T08:50:12.279Z,97977.94
2023-04-07T08:51:18.483Z,97971.22
2023-04-07T08:52:26.847Z,97978.69
2023-04-07T08:53:43.499Z,97975.38
2023-04-07T08:54:50.359Z,97977.97
2023-04-07T08:55:53.631Z,97973.56
2023-04-07T08:56:57.137Z,97970.97
2023-04-07T08:58:01.970Z,97979.53
2023-04-07T08:59:08.031Z,97970.94
2023-04-07T09:00:11.922Z,97976.41
2023-04-07T09:01:19.198Z,97976.09
2023-04-07T09:02:23.746Z,97978.12
2023-04-07T09:03:27.323Z,97982.03
2023-04-07T09:04:30.500Z,97969.62
2023-04-07T09:05:34.495Z,97969.09
2023-04-07T09:06:38.302Z,97969.59
2023-04-07T09:07:41.253Z,97969.81
2023-04-07T09:08:44.593Z,97972.16
2023-04-07T09:09:48.131Z,97969.12
2023-04-07T09:10:51.446Z,97974.56
2023-04-07T09:11:54.484Z,97977.84
2023-04-07T09:12:59.800Z,97973.16
2023-04-07T09:14:03.137Z,97971.13
2023-04-07T09:15:08.004Z,97974.50
2023-04-07T09:16:11.389Z,97976.06
2023-04-07T09:17:14.476Z,97972.94
2023-04-07T09:18:20.906Z,97975.53
2023-04-07T09:19:27.810Z,97969.59
2023-04-07T09:20:59.265Z,97978.66
2023-04-07T09:22:02.334Z,97978.34
2023-04-07T09:23:05.510Z,97976.28
2023-04-07T09:24:35.007Z,97982.16
2023-04-07T09:25:38.021Z,97978.34
2023-04-07T09:26:41.135Z,97980.97
2023-04-07T09:28:04.386Z,97985.66
2023-04-07T09:29:08.357Z,97975.47
2023-04-07T09:30:13.801Z,97979.41
2023-04-07T09:31:17.526Z,97984.81
2023-04-07T09:32:41.699Z,97980.09
2023-04-07T09:33:44.963Z,97975.50
2023-04-07T09:34:47.886Z,97979.44
2023-04-07T09:35:53.959Z,97980.94
2023-04-07T09:36:58.046Z,97978.88
2023-04-07T09:38:08.864Z,97980.94
2023-04-07T09:39:11.758Z,97979.38
2023-04-07T09:40:27.310Z,97979.63
2023-04-07T09:41:30.475Z,97985.66
2023-04-07T09:42:34.839Z,97982.03
2023-04-07T09:43:43.023Z,97983.31
2023-04-07T09:44:46.019Z,97985.66
2023-04-07T09:45:50.017Z,97982.28
2023-04-07T09:46:58.199Z,97989.03
2023-04-07T09:48:06.870Z,97985.66
2023-04-07T09:49:09.968Z,97989.56
2023-04-07T09:50:13.206Z,97989.00
2023-04-07T09:51:18.553Z,97986.91
2023-04-07T09:52:47.450Z,97982.53
2023-04-07T09:53:51.959Z,97985.19
2023-04-07T09:54:57.063Z,97989.09
2023-04-07T09:56:02.937Z,97983.63
2023-04-07T09:57:11.159Z,97977.41
2023-04-07T09:58:17.090Z,97987.75
2023-04-07T09:59:20.525Z,97984.44
2023-04-07T10:00:24.312Z,97991.66
2023-04-07T10:01:27.351Z,97992.09
2023-04-07T10:02:30.429Z,97991.88
2023-04-07T10:03:34.210Z,97987.41
2023-04-07T10:04:37.694Z,97984.09
2023-04-07T10:05:41.492Z,97985.44
2023-04-07T10:06:44.475Z,97980.78
2023-04-07T10:07:48.390Z,97987.78
2023-04-07T10:08:52.772Z,97987.00
2023-04-07T10:09:58.010Z,97989.56
2023-04-07T10:11:05.005Z,97975.81
2023-04-07T10:12:08.010Z,97986.22
2023-04-07T10:13:12.134Z,97981.84
2023-04-07T10:14:16.548Z,97977.94
2023-04-07T10:15:19.429Z,97985.22
2023-04-07T10:16:23.765Z,97980.03
2023-04-07T10:17:28.849Z,97983.38
2023-04-07T10:18:35.828Z,97986.03
2023-04-07T10:19:39.453Z,97983.66
2023-04-07T10:20:42.674Z,97992.50
2023-04-07T10:21:46.677Z,97988.09
2023-04-07T10:22:54.089Z,97988.09
2023-04-07T10:24:06.123Z,97989.94
2023-04-07T10:25:16.023Z,97994.84
2023-04-07T10:26:24.048Z,97982.91
2023-04-07T10:27:37.636Z,97992.78
2023-04-07T10:28:43.887Z,97983.44
2023-04-07T10:29:50.463Z,97990.16
2023-04-07T10:30:54.346Z,97995.87
2023-04-07T10:31:59.751Z,97993.53
2023-04-07T10:33:02.809Z,97994.84
2023-04-07T10:34:06.108Z,97990.69
2023-04-07T10:35:09.180Z,97987.31
2023-04-07T10:36:12.674Z,97985.50
2023-04-07T10:37:22.435Z,97992.22
2023-04-07T10:38:26.637Z,97996.37
2023-04-07T10:39:29.516Z,97994.56
2023-04-07T10:40:32.751Z,97983.13
2023-04-07T10:41:37.752Z,97994.81
2023-04-07T10:42:41.101Z,98000.28
2023-04-07T10:43:45.369Z,97994.59
2023-04-07T10:44:49.982Z,97989.87
2023-04-07T10:45:56.230Z,97994.56
2023-04-07T10:47:01.897Z,97991.19
2023-04-07T10:48:04.858Z,97991.97
2023-04-07T10:49:10.807Z,97991.44
2023-04-07T10:50:23.950Z,97984.41
2023-04-07T10:51:27.518Z,97992.94
2023-04-07T10:52:30.751Z,97990.06
2023-04-07T10:53:37.250Z,97991.88
2023-04-07T10:54:41.075Z,97997.88
2023-04-07T10:55:45.317Z,97988.50
2023-04-07T10:57:03.105Z,97990.31
2023-04-07T10:58:26.375Z,97994.75
2023-04-07T10:59:33.419Z,97993.78
2023-04-07T11:00:36.251Z,97997.94
2023-04-07T11:01:39.274Z,97998.94
2023-04-07T11:02:42.993Z,97991.91
2023-04-07T11:03:57.938Z,97990.84
2023-04-07T11:05:01.599Z,97996.59
2023-04-07T11:06:04.905Z,97997.34
2023-04-07T11:07:09.103Z,97995.50
2023-04-07T11:08:12.208Z,97992.97
2023-04-07T11:09:21.382Z,97997.69
2023-04-07T11:10:24.376Z,97996.41
2023-04-07T11:11:41.920Z,97991.22
2023-04-07T11:12:45.742Z,97998.50
2023-04-07T11:13:51.243Z,97999.78
2023-04-07T11:14:54.372Z,98001.88
2023-04-07T11:15:57.706Z,97991.72
2023-04-07T11:17:05.840Z,97999.00
2023-04-07T11:18:09.332Z,97995.34
2023-04-07T11:19:12.335Z,98001.06
2023-04-07T11:20:15.111Z,98002.63
2023-04-07T11:21:19.937Z,97998.75
2023-04-07T11:22:29.848Z,98005.25
2023-04-07T11:23:41.905Z,98003.41
2023-04-07T11:24:46.889Z,98001.31
2023-04-07T11:25:52.610Z,97999.78
2023-04-07T11:26:55.615Z,98004.97
2023-04-07T11:27:58.515Z,98006.53
2023-04-07T11:29:02.033Z,98005.72
2023-04-07T11:30:10.306Z,98007.31
2023-04-07T11:31:31.882Z,98001.59
2023-04-07T11:32:34.884Z,98002.41
2023-04-07T11:33:39.337Z,98001.59
2023-04-07T11:34:43.265Z,97997.19
2023-04-07T11:35:51.437Z,98001.06
2023-04-07T11:36:54.658Z,97997.69
2023-04-07T11:38:02.732Z,97997.94
2023-04-07T11:39:05.822Z,97998.47
2023-04-07T11:40:09.544Z,97997.44
2023-04-07T11:41:17.753Z,97996.13
2023-04-07T11:42:37.577Z,97991.72
2023-04-07T11:43:43.591Z,97998.47
2023-04-07T11:44:46.763Z,97996.94
2023-04-07T11:46:08.163Z,98008.09
2023-04-07T11:47:11.171Z,98003.66
2023-04-07T11:48:27.566Z,98003.69
2023-04-07T11:49:32.002Z,97996.66
2023-04-07T11:50:42.899Z,98001.59
2023-04-07T11:51:46.318Z,98001.06
2023-04-07T11:52:49.319Z,97998.72
2023-04-07T11:53:57.210Z,97993.28
2023-04-07T11:55:00.725Z,98002.91
2023-04-07T11:56:10.928Z,98006.53
2023-04-07T11:57:14.547Z,98010.19
2023-04-07T11:58:18.255Z,98003.41
2023-04-07T11:59:25.660Z,98007.84
2023-04-07T12:00:32.360Z,98007.59
2023-04-07T12:01:45.373Z,98014.06
2023-04-07T12:02:48.513Z,98007.03
2023-04-07T12:03:59.519Z,98004.69
2023-04-07T12:05:02.681Z,98012.25
2023-04-07T12:06:06.664Z,98004.69
2023-04-07T12:07:11.777Z,98003.16
2023-04-07T12:08:18.997Z,98007.06
2023-04-07T12:09:36.181Z,98007.59
2023-04-07T12:10:40.764Z,98004.97
2023-04-07T12:11:50.508Z,98006.78
2023-04-07T12:12:53.692Z,98008.09
2023-04-07T12:13:57.366Z,98005.47
2023-04-07T12:15:00.189Z,98013.75
2023-04-07T12:16:03.186Z,98006.75
2023-04-07T12:17:07.842Z,98008.56
2023-04-07T12:18:16.562Z,98005.97
2023-04-07T12:19:30.938Z,98008.03
2023-04-07T12:20:35.409Z,98003.84
2023-04-07T12:21:40.177Z,98001.25
2023-04-07T12:22:43.061Z,98003.13
2023-04-07T12:23:47.774Z,98011.16
2023-04-07T12:24:50.767Z,98002.34
2023-04-07T12:25:53.565Z,98005.19
2023-04-07T12:26:57.788Z,97999.22
2023-04-07T12:28:00.673Z,97999.47
2023-04-07T12:29:07.176Z,97998.16
2023-04-07T12:30:10.953Z,98000.78
2023-04-07T12:31:14.876Z,98002.84
2023-04-07T12:32:17.729Z,97996.63
2023-04-07T12:33:20.804Z,97998.16
2023-04-07T12:34:23.639Z,98002.06
2023-04-07T12:35:27.116Z,98001.28
2023-04-07T12:36:30.120Z,97998.44
2023-04-07T12:37:33.283Z,97990.66
2023-04-07T12:38:36.506Z,97994.50
2023-04-07T12:39:39.912Z,97991.72
2023-04-07T12:40:43.529Z,97994.81
2023-04-07T12:41:47.897Z,97996.41